createdAt,value
2017-09-04T00:00:35.954Z,0
2017-09-04T00:01:37.346Z,0
2017-09-04T00:02:38.738Z,0
2017-09-04T00:03:40.126Z,0
2017-09-04T00:04:41.514Z,0
2017-09-04T00:05:42.903Z,0
2017-09-04T00:06:44.292Z,0
2017-09-04T00:07:45.683Z,0
2017-09-04T00:08:47.073Z,0
2017-09-04T00:09:48.466Z,0
2017-09-04T00:10:49.856Z,0
2017-09-04T00:11:51.244Z,0
2017-09-04T00:12:52.636Z,0
2017-09-04T00:13:54.029Z,0
2017-09-04T00:14:55.418Z,0
2017-09-04T00:15:56.810Z,0
2017-09-04T00:16:58.202Z,0
2017-09-04T00:17:59.590Z,0
2017-09-04T00:19:00.979Z,0
2017-09-04T00:20:02.403Z,0
2017-09-04T00:21:03.792Z,0
2017-09-04T00:22:05.185Z,0
2017-09-04T00:23:06.577Z,0
2017-09-04T00:24:07.967Z,0
2017-09-04T00:25:09.356Z,0
2017-09-04T00:26:10.750Z,0
2017-09-04T00:27:12.137Z,0
2017-09-04T00:28:13.562Z,0
2017-09-04T00:29:14.918Z,0
2017-09-04T00:30:16.309Z,0
2017-09-04T00:31:17.702Z,0
2017-09-04T00:32:19.091Z,0
2017-09-04T00:33:20.479Z,0
2017-09-04T00:34:21.869Z,0
2017-09-04T00:35:23.260Z,0
2017-09-04T00:36:24.651Z,0
2017-09-04T00:37:26.042Z,0
2017-09-04T00:38:27.432Z,0
2017-09-04T00:39:28.827Z,0
2017-09-04T00:40:30.209Z,0
2017-09-04T00:41:31.599Z,0
2017-09-04T00:42:32.990Z,0
2017-09-04T00:43:34.382Z,0
2017-09-04T00:44:35.773Z,0
2017-09-04T00:45:37.174Z,0
2017-09-04T00:46:38.577Z,0
2017-09-04T00:47:39.966Z,0
2017-09-04T00:48:41.354Z,0
2017-09-04T00:49:42.748Z,0
2017-09-04T00:50:44.148Z,0
2017-09-04T00:51:45.538Z,0
2017-09-04T00:52:46.929Z,0
2017-09-04T00:53:48.318Z,0
2017-09-04T00:54:49.707Z,0
2017-09-04T00:55:51.096Z,0
2017-09-04T00:56:52.485Z,0
2017-09-04T00:57:53.872Z,0
2017-09-04T00:58:55.264Z,0
2017-09-04T00:59:56.655Z,0
2017-09-04T01:00:58.046Z,0
2017-09-04T01:01:59.433Z,0
2017-09-04T01:03:00.825Z,0
2017-09-04T01:04:02.215Z,0
2017-09-04T01:05:03.612Z,0
2017-09-04T01:06:04.993Z,0
2017-09-04T01:07:06.384Z,0
2017-09-04T01:08:07.772Z,0
2017-09-04T01:09:09.161Z,0
2017-09-04T01:10:10.549Z,0
2017-09-04T01:11:11.940Z,0
2017-09-04T01:12:13.328Z,0
2017-09-04T01:13:14.722Z,0
2017-09-04T01:14:16.114Z,0
2017-09-04T01:15:17.501Z,0
2017-09-04T01:16:18.888Z,0
2017-09-04T01:17:20.278Z,0
2017-09-04T01:18:21.672Z,0
2017-09-04T01:19:23.057Z,0
2017-09-04T01:20:24.447Z,0
2017-09-04T01:21:25.837Z,0
2017-09-04T01:22:27.226Z,0
2017-09-04T01:23:28.614Z,0
2017-09-04T01:24:30.005Z,0
2017-09-04T01:25:31.396Z,0
2017-09-04T01:26:32.785Z,0
2017-09-04T01:27:34.176Z,0
2017-09-04T01:28:35.565Z,0
2017-09-04T01:29:36.956Z,0
2017-09-04T01:30:38.347Z,0
2017-09-04T01:31:39.738Z,0
2017-09-04T01:32:41.128Z,0
2017-09-04T01:33:42.515Z,0
2017-09-04T01:34:43.904Z,0
2017-09-04T01:35:45.308Z,0
2017-09-04T01:36:46.688Z,0
2017-09-04T01:37:48.086Z,0
2017-09-04T01:38:49.477Z,0
2017-09-04T01:39:50.866Z,0
2017-09-04T01:40:52.262Z,0
2017-09-04T01:41:53.648Z,0
2017-09-04T01:42:55.039Z,0
2017-09-04T01:43:56.427Z,0
2017-09-04T01:44:57.815Z,0
2017-09-04T01:45:59.207Z,0
2017-09-04T01:47:00.593Z,0
2017-09-04T01:48:01.985Z,0
2017-09-04T01:49:03.378Z,0
2017-09-04T01:50:04.769Z,0
2017-09-04T01:51:06.157Z,0
2017-09-04T01:52:07.544Z,0
2017-09-04T01:53:08.930Z,0
2017-09-04T01:54:10.321Z,0
2017-09-04T01:55:11.711Z,0
2017-09-04T01:56:13.102Z,0
2017-09-04T01:57:14.495Z,0
2017-09-04T01:58:15.881Z,0
2017-09-04T01:59:17.268Z,0
2017-09-04T02:00:18.657Z,0
2017-09-04T02:01:20.047Z,0
2017-09-04T02:02:21.447Z,0
2017-09-04T02:03:22.839Z,0
2017-09-04T02:04:24.230Z,0
2017-09-04T02:05:25.619Z,0
2017-09-04T02:06:27.009Z,0
2017-09-04T02:07:28.434Z,0
2017-09-04T02:08:29.825Z,0
2017-09-04T02:09:31.216Z,0
2017-09-04T02:10:32.608Z,0
2017-09-04T02:11:33.998Z,0
2017-09-04T02:12:35.384Z,0
2017-09-04T02:13:36.773Z,0
2017-09-04T02:14:38.164Z,0
2017-09-04T02:15:39.554Z,0
2017-09-04T02:16:40.945Z,0
2017-09-04T02:17:42.335Z,0
2017-09-04T02:18:43.725Z,0
2017-09-04T02:19:45.112Z,0
2017-09-04T02:20:46.502Z,0
2017-09-04T02:21:47.894Z,0
2017-09-04T02:22:49.284Z,0
2017-09-04T02:23:50.670Z,0
2017-09-04T02:24:52.061Z,0
2017-09-04T02:25:53.458Z,0
2017-09-04T02:26:54.846Z,0
2017-09-04T02:27:56.231Z,0
2017-09-04T02:28:57.628Z,0
2017-09-04T02:29:59.021Z,0
2017-09-04T02:31:00.410Z,0
2017-09-04T02:32:01.797Z,0
2017-09-04T02:33:03.188Z,0
2017-09-04T02:34:04.577Z,0
2017-09-04T02:35:05.967Z,0
2017-09-04T02:36:07.353Z,0
2017-09-04T02:37:08.743Z,0
2017-09-04T02:38:10.130Z,0
2017-09-04T02:39:11.521Z,0
2017-09-04T02:40:12.913Z,0
2017-09-04T02:41:14.301Z,0
2017-09-04T02:42:15.690Z,0
2017-09-04T02:43:17.076Z,0
2017-09-04T02:44:18.467Z,0
2017-09-04T02:45:19.858Z,0
2017-09-04T02:46:21.255Z,0
2017-09-04T02:47:22.642Z,0
2017-09-04T02:48:24.029Z,0
2017-09-04T02:49:25.418Z,0
2017-09-04T02:50:26.806Z,0
2017-09-04T02:51:28.202Z,0
2017-09-04T02:52:29.592Z,0
2017-09-04T02:53:30.980Z,0
2017-09-04T02:54:32.373Z,0
2017-09-04T02:55:33.763Z,0
2017-09-04T02:56:35.154Z,0
2017-09-04T02:57:36.542Z,0
2017-09-04T02:58:37.932Z,0
2017-09-04T02:59:39.323Z,0
2017-09-04T03:00:40.715Z,0
2017-09-04T03:01:42.105Z,0
2017-09-04T03:02:43.493Z,0
2017-09-04T03:03:44.880Z,0
2017-09-04T03:04:46.269Z,0
2017-09-04T03:05:47.663Z,0
2017-09-04T03:06:49.050Z,0
2017-09-04T03:07:50.442Z,0
2017-09-04T03:08:51.834Z,0
2017-09-04T03:09:53.224Z,0
2017-09-04T03:10:54.614Z,0
2017-09-04T03:11:56.005Z,0
2017-09-04T03:12:57.393Z,0
2017-09-04T03:13:58.783Z,0
2017-09-04T03:15:00.172Z,0
2017-09-04T03:16:01.565Z,0
2017-09-04T03:17:02.954Z,0
2017-09-04T03:18:04.342Z,0
2017-09-04T03:19:05.731Z,0
2017-09-04T03:20:07.123Z,0
2017-09-04T03:21:08.512Z,0
2017-09-04T03:22:09.906Z,0
2017-09-04T03:23:11.295Z,0
2017-09-04T03:24:12.683Z,0
2017-09-04T03:25:14.077Z,0
2017-09-04T03:26:15.464Z,0
2017-09-04T03:27:16.854Z,0
2017-09-04T03:28:18.246Z,0
2017-09-04T03:29:19.634Z,0
2017-09-04T03:30:21.024Z,0
2017-09-04T03:31:22.411Z,0
2017-09-04T03:32:23.799Z,0
2017-09-04T03:33:25.187Z,0
2017-09-04T03:34:26.578Z,0
2017-09-04T03:35:27.969Z,0
2017-09-04T03:36:29.358Z,0
2017-09-04T03:37:30.749Z,0
2017-09-04T03:38:32.135Z,0
2017-09-04T03:39:33.526Z,0
2017-09-04T03:40:34.913Z,0
2017-09-04T03:41:36.303Z,0
2017-09-04T03:42:37.697Z,0
2017-09-04T03:43:39.082Z,0
2017-09-04T03:44:40.475Z,0
2017-09-04T03:45:41.863Z,0
2017-09-04T03:46:43.252Z,0
2017-09-04T03:47:44.641Z,0
2017-09-04T03:48:46.028Z,0
2017-09-04T03:49:47.417Z,0
2017-09-04T03:50:48.806Z,0
2017-09-04T03:51:50.200Z,0
2017-09-04T03:52:51.586Z,0
2017-09-04T03:53:52.977Z,0
2017-09-04T03:54:54.404Z,0
2017-09-04T03:55:55.796Z,0
2017-09-04T03:56:57.189Z,0
2017-09-04T03:57:58.577Z,0
2017-09-04T03:58:59.969Z,0
2017-09-04T04:00:01.356Z,0
2017-09-04T04:01:02.745Z,0
2017-09-04T04:02:04.136Z,0
2017-09-04T04:03:05.525Z,0
2017-09-04T04:04:06.915Z,0
2017-09-04T04:05:08.307Z,0
2017-09-04T04:06:09.700Z,0
2017-09-04T04:07:11.094Z,0
2017-09-04T04:08:12.478Z,0
2017-09-04T04:09:13.866Z,0
2017-09-04T04:10:15.258Z,0
2017-09-04T04:11:16.648Z,0
2017-09-04T04:12:18.038Z,0
2017-09-04T04:13:19.447Z,0
2017-09-04T04:14:20.833Z,0
2017-09-04T04:15:22.223Z,0
2017-09-04T04:16:23.610Z,0
2017-09-04T04:17:25.000Z,0
2017-09-04T04:18:26.391Z,0
2017-09-04T04:19:27.782Z,0
2017-09-04T04:20:29.175Z,0
2017-09-04T04:21:30.566Z,0
2017-09-04T04:22:31.953Z,0
2017-09-04T04:23:33.339Z,0
2017-09-04T04:24:34.729Z,0
2017-09-04T04:25:36.118Z,0
2017-09-04T04:26:37.508Z,4
2017-09-04T04:27:38.898Z,4
2017-09-04T04:28:40.286Z,0
2017-09-04T04:29:41.677Z,0
2017-09-04T04:30:43.065Z,0
2017-09-04T04:31:44.454Z,4
2017-09-04T04:32:45.844Z,4
2017-09-04T04:33:47.234Z,4
2017-09-04T04:34:48.626Z,4
2017-09-04T04:35:50.014Z,4
2017-09-04T04:36:51.402Z,4
2017-09-04T04:37:52.793Z,4
2017-09-04T04:38:54.184Z,8
2017-09-04T04:39:55.576Z,12
2017-09-04T04:40:56.975Z,12
2017-09-04T04:41:58.369Z,12
2017-09-04T04:42:59.757Z,12
2017-09-04T04:44:01.145Z,16
2017-09-04T04:45:02.535Z,20
2017-09-04T04:46:03.933Z,20
2017-09-04T04:47:05.334Z,24
2017-09-04T04:48:06.723Z,28
2017-09-04T04:49:08.121Z,32
2017-09-04T04:50:09.509Z,36
2017-09-04T04:51:10.901Z,40
2017-09-04T04:52:12.327Z,48
2017-09-04T04:53:13.683Z,48
2017-09-04T04:54:15.076Z,56
2017-09-04T04:55:16.468Z,64
2017-09-04T04:56:17.856Z,64
2017-09-04T04:57:19.248Z,76
2017-09-04T04:58:20.636Z,80
2017-09-04T04:59:22.027Z,84
2017-09-04T05:00:23.418Z,92
2017-09-04T05:01:24.811Z,104
2017-09-04T05:02:26.203Z,108
2017-09-04T05:03:27.597Z,120
2017-09-04T05:04:28.985Z,128
2017-09-04T05:05:30.389Z,140
2017-09-04T05:06:31.778Z,152
2017-09-04T05:07:33.177Z,164
2017-09-04T05:08:34.561Z,180
2017-09-04T05:09:35.954Z,200
2017-09-04T05:10:37.347Z,212
2017-09-04T05:11:38.741Z,224
2017-09-04T05:12:40.132Z,236
2017-09-04T05:13:41.525Z,248
2017-09-04T05:14:42.918Z,260
2017-09-04T05:15:44.308Z,268
2017-09-04T05:16:45.737Z,280
2017-09-04T05:17:47.097Z,288
2017-09-04T05:18:48.490Z,300
2017-09-04T05:19:49.880Z,304
2017-09-04T05:20:51.271Z,304
2017-09-04T05:21:52.665Z,316
2017-09-04T05:22:54.055Z,312
2017-09-04T05:23:55.447Z,308
2017-09-04T05:24:56.843Z,304
2017-09-04T05:25:58.232Z,300
2017-09-04T05:26:59.627Z,300
2017-09-04T05:28:01.020Z,304
2017-09-04T05:29:02.411Z,308
2017-09-04T05:30:03.811Z,316
2017-09-04T05:31:05.199Z,324
2017-09-04T05:32:06.593Z,340
2017-09-04T05:33:07.986Z,360
2017-09-04T05:34:09.379Z,384
2017-09-04T05:35:10.772Z,412
2017-09-04T05:36:12.166Z,440
2017-09-04T05:37:13.558Z,472
2017-09-04T05:38:14.951Z,504
2017-09-04T05:39:16.354Z,540
2017-09-04T05:40:17.746Z,572
2017-09-04T05:41:19.138Z,604
2017-09-04T05:42:20.533Z,628
2017-09-04T05:43:21.928Z,652
2017-09-04T05:44:23.331Z,676
2017-09-04T05:45:24.737Z,688
2017-09-04T05:46:26.131Z,696
2017-09-04T05:47:27.521Z,700
2017-09-04T05:48:28.914Z,708
2017-09-04T05:49:30.306Z,716
2017-09-04T05:50:31.718Z,736
2017-09-04T05:51:33.112Z,760
2017-09-04T05:52:34.502Z,784
2017-09-04T05:53:35.894Z,812
2017-09-04T05:54:37.284Z,836
2017-09-04T05:55:38.679Z,848
2017-09-04T05:56:40.062Z,860
2017-09-04T05:57:41.474Z,868
2017-09-04T05:58:42.872Z,884
2017-09-04T05:59:44.273Z,904
2017-09-04T06:00:45.664Z,912
2017-09-04T06:01:47.056Z,916
2017-09-04T06:02:48.450Z,928
2017-09-04T06:03:49.840Z,948
2017-09-04T06:04:51.233Z,988
2017-09-04T06:05:52.627Z,1032
2017-09-04T06:06:54.022Z,1060
2017-09-04T06:07:55.419Z,1084
2017-09-04T06:08:56.812Z,1120
2017-09-04T06:09:58.205Z,1164
2017-09-04T06:10:59.598Z,1216
2017-09-04T06:12:00.993Z,1268
2017-09-04T06:13:02.388Z,1316
2017-09-04T06:14:03.788Z,1360
2017-09-04T06:15:05.183Z,1400
2017-09-04T06:16:06.577Z,1440
2017-09-04T06:17:07.972Z,1496
2017-09-04T06:18:09.366Z,1528
2017-09-04T06:19:10.759Z,1548
2017-09-04T06:20:12.154Z,1576
2017-09-04T06:21:13.547Z,1604
2017-09-04T06:22:14.942Z,1632
2017-09-04T06:23:16.336Z,1660
2017-09-04T06:24:17.731Z,1708
2017-09-04T06:25:19.131Z,1720
2017-09-04T06:26:20.523Z,1720
2017-09-04T06:27:21.915Z,1724
2017-09-04T06:28:23.310Z,1728
2017-09-04T06:29:24.703Z,1716
2017-09-04T06:30:26.098Z,1716
2017-09-04T06:31:27.488Z,1708
2017-09-04T06:32:28.885Z,1716
2017-09-04T06:33:30.282Z,1724
2017-09-04T06:34:31.678Z,1744
2017-09-04T06:35:33.074Z,1772
2017-09-04T06:36:34.473Z,1756
2017-09-04T06:37:35.869Z,1756
2017-09-04T06:38:37.260Z,1752
2017-09-04T06:39:38.655Z,1780
2017-09-04T06:40:40.053Z,1808
2017-09-04T06:41:41.447Z,1852
2017-09-04T06:42:42.854Z,1896
2017-09-04T06:43:44.240Z,1940
2017-09-04T06:44:45.632Z,1980
2017-09-04T06:45:47.026Z,1996
2017-09-04T06:46:48.421Z,2028
2017-09-04T06:47:49.820Z,2092
2017-09-04T06:48:51.213Z,2144
2017-09-04T06:49:52.608Z,2172
2017-09-04T06:50:54.009Z,2224
2017-09-04T06:51:55.400Z,2256
2017-09-04T06:52:56.797Z,2284
2017-09-04T06:53:58.192Z,2304
2017-09-04T06:54:59.593Z,2316
2017-09-04T06:56:00.988Z,2332
2017-09-04T06:57:02.385Z,2344
2017-09-04T06:58:03.779Z,2340
2017-09-04T06:59:05.178Z,2304
2017-09-04T07:00:06.573Z,2244
2017-09-04T07:01:07.967Z,2152
2017-09-04T07:02:09.363Z,2032
2017-09-04T07:03:10.759Z,1952
2017-09-04T07:04:12.158Z,1876
2017-09-04T07:05:13.554Z,1792
2017-09-04T07:06:14.949Z,1744
2017-09-04T07:07:16.343Z,1740
2017-09-04T07:08:17.738Z,1748
2017-09-04T07:09:19.138Z,1776
2017-09-04T07:10:20.529Z,1832
2017-09-04T07:11:21.926Z,1844
2017-09-04T07:12:23.332Z,1800
2017-09-04T07:13:24.719Z,1712
2017-09-04T07:14:26.114Z,1664
2017-09-04T07:15:27.509Z,1664
2017-09-04T07:16:28.905Z,1696
2017-09-04T07:17:30.302Z,1720
2017-09-04T07:18:31.698Z,1748
2017-09-04T07:19:33.093Z,1776
2017-09-04T07:20:34.489Z,1804
2017-09-04T07:21:35.884Z,1832
2017-09-04T07:22:37.279Z,1872
2017-09-04T07:23:38.676Z,1932
2017-09-04T07:24:40.071Z,2044
2017-09-04T07:25:41.468Z,2120
2017-09-04T07:26:42.867Z,2180
2017-09-04T07:27:44.262Z,2172
2017-09-04T07:28:45.659Z,2188
2017-09-04T07:29:47.055Z,2320
2017-09-04T07:30:48.454Z,2400
2017-09-04T07:31:49.848Z,2428
2017-09-04T07:32:51.248Z,2412
2017-09-04T07:33:52.646Z,2424
2017-09-04T07:34:54.041Z,2496
2017-09-04T07:35:55.435Z,2572
2017-09-04T07:36:56.833Z,2620
2017-09-04T07:37:58.229Z,2644
2017-09-04T07:38:59.627Z,2552
2017-09-04T07:40:01.035Z,2672
2017-09-04T07:41:02.463Z,2788
2017-09-04T07:42:03.858Z,2808
2017-09-04T07:43:05.253Z,2696
2017-09-04T07:44:06.648Z,2588
2017-09-04T07:45:08.047Z,2636
2017-09-04T07:46:09.442Z,2684
2017-09-04T07:47:10.842Z,2852
2017-09-04T07:48:12.238Z,3132
2017-09-04T07:49:13.633Z,3044
2017-09-04T07:50:15.029Z,3220
2017-09-04T07:51:16.425Z,3460
2017-09-04T07:52:17.825Z,3716
2017-09-04T07:53:19.223Z,3976
2017-09-04T07:54:20.622Z,4148
2017-09-04T07:55:22.019Z,4212
2017-09-04T07:56:23.415Z,4344
2017-09-04T07:57:24.808Z,4444
2017-09-04T07:58:26.205Z,4412
2017-09-04T07:59:27.601Z,4468
2017-09-04T08:00:29.001Z,4584
2017-09-04T08:01:30.396Z,4596
2017-09-04T08:02:31.800Z,4580
2017-09-04T08:03:33.197Z,4516
2017-09-04T08:04:34.590Z,4336
2017-09-04T08:05:35.987Z,4264
2017-09-04T08:06:37.385Z,4232
2017-09-04T08:07:38.782Z,4216
2017-09-04T08:08:40.181Z,4204
2017-09-04T08:09:41.580Z,4264
2017-09-04T08:10:42.975Z,4420
2017-09-04T08:11:44.370Z,4504
2017-09-04T08:12:45.768Z,4692
2017-09-04T08:13:47.163Z,4936
2017-09-04T08:14:48.560Z,4792
2017-09-04T08:15:49.957Z,5164
2017-09-04T08:16:51.355Z,5580
2017-09-04T08:17:52.750Z,5628
2017-09-04T08:18:54.149Z,5420
2017-09-04T08:19:55.546Z,5212
2017-09-04T08:20:56.945Z,5372
2017-09-04T08:21:58.347Z,5664
2017-09-04T08:22:59.747Z,6036
2017-09-04T08:24:01.147Z,6152
2017-09-04T08:25:02.542Z,6120
2017-09-04T08:26:03.944Z,6408
2017-09-04T08:27:05.337Z,6932
2017-09-04T08:28:06.734Z,6920
2017-09-04T08:29:08.132Z,6264
2017-09-04T08:30:09.533Z,6392
2017-09-04T08:31:10.934Z,6172
2017-09-04T08:32:12.343Z,6276
2017-09-04T08:33:13.739Z,6168
2017-09-04T08:34:15.138Z,6384
2017-09-04T08:35:16.538Z,6236
2017-09-04T08:36:17.934Z,5600
2017-09-04T08:37:19.334Z,5536
2017-09-04T08:38:20.737Z,5884
2017-09-04T08:39:22.132Z,5084
2017-09-04T08:40:23.529Z,4608
2017-09-04T08:41:24.925Z,4644
2017-09-04T08:42:26.324Z,4424
2017-09-04T08:43:27.721Z,4640
2017-09-04T08:44:29.121Z,4832
2017-09-04T08:45:30.523Z,4992
2017-09-04T08:46:31.919Z,5524
2017-09-04T08:47:33.318Z,6052
2017-09-04T08:48:34.715Z,6528
2017-09-04T08:49:36.115Z,6020
2017-09-04T08:50:37.514Z,6232
2017-09-04T08:51:38.911Z,6536
2017-09-04T08:52:40.311Z,6788
2017-09-04T08:53:41.710Z,7184
2017-09-04T08:54:43.108Z,7536
2017-09-04T08:55:44.508Z,7476
2017-09-04T08:56:45.916Z,7340
2017-09-04T08:57:47.318Z,7352
2017-09-04T08:58:48.724Z,7136
2017-09-04T08:59:50.124Z,6700
2017-09-04T09:00:51.521Z,6572
2017-09-04T09:01:52.919Z,5984
2017-09-04T09:02:54.316Z,5988
2017-09-04T09:03:55.713Z,5836
2017-09-04T09:04:57.111Z,5744
2017-09-04T09:05:58.516Z,5668
2017-09-04T09:06:59.912Z,6624
2017-09-04T09:08:01.310Z,6052
2017-09-04T09:09:02.706Z,5068
2017-09-04T09:10:04.107Z,4784
2017-09-04T09:11:05.504Z,4596
2017-09-04T09:12:06.905Z,4356
2017-09-04T09:13:08.305Z,4020
2017-09-04T09:14:09.704Z,3904
2017-09-04T09:15:11.185Z,3852
2017-09-04T09:16:12.585Z,3792
2017-09-04T09:17:14.021Z,3708
2017-09-04T09:18:15.421Z,3668
2017-09-04T09:19:16.822Z,3652
2017-09-04T09:20:18.225Z,3660
2017-09-04T09:21:19.626Z,3688
2017-09-04T09:22:21.023Z,3708
2017-09-04T09:23:22.429Z,3692
2017-09-04T09:24:23.823Z,3704
2017-09-04T09:25:25.220Z,3744
2017-09-04T09:26:26.618Z,3748
2017-09-04T09:27:28.018Z,3740
2017-09-04T09:28:29.418Z,3772
2017-09-04T09:29:30.815Z,3864
2017-09-04T09:30:32.215Z,3892
2017-09-04T09:31:33.613Z,3960
2017-09-04T09:32:35.013Z,4028
2017-09-04T09:33:36.413Z,4136
2017-09-04T09:34:37.810Z,4224
2017-09-04T09:35:39.213Z,4392
2017-09-04T09:36:40.611Z,4496
2017-09-04T09:37:42.010Z,4692
2017-09-04T09:38:43.408Z,5064
2017-09-04T09:39:44.811Z,5592
2017-09-04T09:40:46.207Z,6072
2017-09-04T09:41:47.606Z,6656
2017-09-04T09:42:49.005Z,7536
2017-09-04T09:43:50.402Z,8760
2017-09-04T09:44:51.798Z,9056
2017-09-04T09:45:53.196Z,9564
2017-09-04T09:46:54.594Z,9788
2017-09-04T09:47:55.996Z,9652
2017-09-04T09:48:57.397Z,9468
2017-09-04T09:49:58.805Z,8748
2017-09-04T09:51:00.203Z,8084
2017-09-04T09:52:01.599Z,7344
2017-09-04T09:53:03.000Z,7272
2017-09-04T09:54:04.395Z,7368
2017-09-04T09:55:05.795Z,7724
2017-09-04T09:56:07.194Z,8016
2017-09-04T09:57:08.594Z,9900
2017-09-04T09:58:09.989Z,9208
2017-09-04T09:59:11.386Z,8312
2017-09-04T10:00:12.785Z,8224
2017-09-04T10:01:14.185Z,7548
2017-09-04T10:02:15.585Z,7164
2017-09-04T10:03:16.982Z,6820
2017-09-04T10:04:18.386Z,6700
2017-09-04T10:05:19.784Z,6524
2017-09-04T10:06:21.184Z,6560
2017-09-04T10:07:22.581Z,6636
2017-09-04T10:08:23.980Z,7156
2017-09-04T10:09:25.380Z,6204
2017-09-04T10:10:26.780Z,5980
2017-09-04T10:11:28.184Z,5928
2017-09-04T10:12:29.577Z,5836
2017-09-04T10:13:30.984Z,5768
2017-09-04T10:14:32.400Z,6244
2017-09-04T10:15:33.799Z,5624
2017-09-04T10:16:35.199Z,5608
2017-09-04T10:17:36.596Z,5428
2017-09-04T10:18:38.000Z,5336
2017-09-04T10:19:39.399Z,5224
2017-09-04T10:20:40.799Z,5112
2017-09-04T10:21:42.196Z,4984
2017-09-04T10:22:43.600Z,4692
2017-09-04T10:23:44.998Z,4628
2017-09-04T10:24:46.400Z,4592
2017-09-04T10:25:47.799Z,4568
2017-09-04T10:26:49.203Z,4572
2017-09-04T10:27:50.601Z,4628
2017-09-04T10:28:51.998Z,4656
2017-09-04T10:29:53.398Z,4696
2017-09-04T10:30:54.797Z,4652
2017-09-04T10:31:56.197Z,4652
2017-09-04T10:32:57.596Z,4600
2017-09-04T10:33:58.996Z,4584
2017-09-04T10:35:00.394Z,4500
2017-09-04T10:36:01.790Z,4476
2017-09-04T10:37:03.191Z,4508
2017-09-04T10:38:04.590Z,4592
2017-09-04T10:39:05.992Z,4724
2017-09-04T10:40:07.392Z,4884
2017-09-04T10:41:08.789Z,5032
2017-09-04T10:42:10.190Z,5140
2017-09-04T10:43:11.587Z,5356
2017-09-04T10:44:12.987Z,5704
2017-09-04T10:45:14.386Z,6072
2017-09-04T10:46:15.785Z,6628
2017-09-04T10:47:17.184Z,6908
2017-09-04T10:48:18.579Z,7176
2017-09-04T10:49:19.979Z,9532
2017-09-04T10:50:21.376Z,7564
2017-09-04T10:51:22.775Z,7276
2017-09-04T10:52:24.177Z,7204
2017-09-04T10:53:25.575Z,7436
2017-09-04T10:54:26.975Z,7568
2017-09-04T10:55:28.375Z,7752
2017-09-04T10:56:29.775Z,7652
2017-09-04T10:57:31.178Z,7764
2017-09-04T10:58:32.576Z,7896
2017-09-04T10:59:33.979Z,8528
2017-09-04T11:00:35.378Z,8776
2017-09-04T11:01:36.776Z,9148
2017-09-04T11:02:38.176Z,8328
2017-09-04T11:03:39.574Z,8344
2017-09-04T11:04:40.973Z,8800
2017-09-04T11:05:42.373Z,8364
2017-09-04T11:06:43.774Z,8596
2017-09-04T11:07:45.176Z,9316
2017-09-04T11:08:46.579Z,9652
2017-09-04T11:09:47.976Z,10032
2017-09-04T11:10:49.376Z,8936
2017-09-04T11:11:50.774Z,8932
2017-09-04T11:12:52.173Z,8792
2017-09-04T11:13:53.571Z,8704
2017-09-04T11:14:54.973Z,8456
2017-09-04T11:15:56.377Z,8504
2017-09-04T11:16:57.777Z,8704
2017-09-04T11:17:59.174Z,9180
2017-09-04T11:19:00.574Z,8708
2017-09-04T11:20:01.976Z,8904
2017-09-04T11:21:03.380Z,9308
2017-09-04T11:22:04.779Z,8816
2017-09-04T11:23:06.178Z,9000
2017-09-04T11:24:07.583Z,8296
2017-09-04T11:25:09.022Z,8032
2017-09-04T11:26:10.379Z,7704
2017-09-04T11:27:11.782Z,7380
2017-09-04T11:28:13.181Z,7216
2017-09-04T11:29:14.581Z,7576
2017-09-04T11:30:15.993Z,7344
2017-09-04T11:31:17.386Z,7808
2017-09-04T11:32:18.788Z,8024
2017-09-04T11:33:20.189Z,8516
2017-09-04T11:34:21.589Z,8476
2017-09-04T11:35:22.997Z,8708
2017-09-04T11:36:24.389Z,8856
2017-09-04T11:37:25.789Z,9336
2017-09-04T11:38:27.187Z,9524
2017-09-04T11:39:28.586Z,9748
2017-09-04T11:40:29.986Z,9884
2017-09-04T11:41:31.387Z,11016
2017-09-04T11:42:32.791Z,12124
2017-09-04T11:43:34.200Z,12876
2017-09-04T11:44:35.603Z,14664
2017-09-04T11:45:36.999Z,14176
2017-09-04T11:46:38.400Z,12900
2017-09-04T11:47:39.804Z,11836
2017-09-04T11:48:41.206Z,11440
2017-09-04T11:49:42.605Z,10328
2017-09-04T11:50:44.008Z,9816
2017-09-04T11:51:45.410Z,9324
2017-09-04T11:52:46.807Z,9056
2017-09-04T11:53:48.210Z,9044
2017-09-04T11:54:49.607Z,9240
2017-09-04T11:55:51.016Z,8832
2017-09-04T11:56:52.431Z,9100
2017-09-04T11:57:53.834Z,8488
2017-09-04T11:58:55.234Z,8412
2017-09-04T11:59:56.635Z,8544
2017-09-04T12:00:58.032Z,9148
2017-09-04T12:01:59.432Z,9560
2017-09-04T12:03:00.836Z,9508
2017-09-04T12:04:02.236Z,8756
2017-09-04T12:05:03.645Z,7996
2017-09-04T12:06:05.042Z,8024
2017-09-04T12:07:06.444Z,7828
2017-09-04T12:08:07.840Z,7800
2017-09-04T12:09:09.241Z,7980
2017-09-04T12:10:10.641Z,8204
2017-09-04T12:11:12.042Z,8512
2017-09-04T12:12:13.441Z,9100
2017-09-04T12:13:14.846Z,9916
2017-09-04T12:14:16.247Z,10944
2017-09-04T12:15:17.647Z,11376
2017-09-04T12:16:19.047Z,13628
2017-09-04T12:17:20.452Z,11068
2017-09-04T12:18:21.852Z,11132
2017-09-04T12:19:23.255Z,14284
2017-09-04T12:20:24.655Z,15484
2017-09-04T12:21:26.055Z,12432
2017-09-04T12:22:27.454Z,12848
2017-09-04T12:23:28.855Z,11672
2017-09-04T12:24:30.258Z,11792
2017-09-04T12:25:31.670Z,11736
2017-09-04T12:26:33.078Z,10604
2017-09-04T12:27:34.474Z,10176
2017-09-04T12:28:35.874Z,10660
2017-09-04T12:29:37.273Z,10740
2017-09-04T12:30:38.678Z,11280
2017-09-04T12:31:40.074Z,10320
2017-09-04T12:32:41.477Z,9688
2017-09-04T12:33:42.880Z,9604
2017-09-04T12:34:44.280Z,9888
2017-09-04T12:35:45.680Z,10332
2017-09-04T12:36:47.087Z,9840
2017-09-04T12:37:48.482Z,9380
2017-09-04T12:38:49.881Z,8548
2017-09-04T12:39:51.284Z,7368
2017-09-04T12:40:52.686Z,6496
2017-09-04T12:41:54.095Z,5880
2017-09-04T12:42:55.492Z,5664
2017-09-04T12:43:56.889Z,5936
2017-09-04T12:44:58.292Z,6128
2017-09-04T12:45:59.692Z,6072
2017-09-04T12:47:01.097Z,5908
2017-09-04T12:48:02.494Z,5656
2017-09-04T12:49:03.901Z,5572
2017-09-04T12:50:05.301Z,5516
2017-09-04T12:51:06.702Z,5144
2017-09-04T12:52:08.101Z,4612
2017-09-04T12:53:09.502Z,4344
2017-09-04T12:54:10.901Z,4340
2017-09-04T12:55:12.306Z,4196
2017-09-04T12:56:13.707Z,3944
2017-09-04T12:57:15.107Z,3916
2017-09-04T12:58:16.509Z,3828
2017-09-04T12:59:17.909Z,3732
2017-09-04T13:00:19.309Z,3608
2017-09-04T13:01:20.712Z,3432
2017-09-04T13:02:22.115Z,3128
2017-09-04T13:03:23.515Z,2908
2017-09-04T13:04:24.910Z,2832
2017-09-04T13:05:26.311Z,2792
2017-09-04T13:06:27.712Z,2788
2017-09-04T13:07:29.112Z,2808
2017-09-04T13:08:30.514Z,2780
2017-09-04T13:09:31.915Z,2736
2017-09-04T13:10:33.315Z,2728
2017-09-04T13:11:34.712Z,2712
2017-09-04T13:12:36.114Z,2624
2017-09-04T13:13:37.515Z,2624
2017-09-04T13:14:38.915Z,2684
2017-09-04T13:15:40.314Z,2776
2017-09-04T13:16:41.716Z,2884
2017-09-04T13:17:43.117Z,2996
2017-09-04T13:18:44.515Z,3180
2017-09-04T13:19:45.914Z,3408
2017-09-04T13:20:47.313Z,3668
2017-09-04T13:21:48.712Z,3932
2017-09-04T13:22:50.114Z,4216
2017-09-04T13:23:51.512Z,4280
2017-09-04T13:24:52.915Z,4176
2017-09-04T13:25:54.310Z,4084
2017-09-04T13:26:55.710Z,3936
2017-09-04T13:27:57.110Z,3748
2017-09-04T13:28:58.510Z,3484
2017-09-04T13:29:59.910Z,3276
2017-09-04T13:31:01.308Z,3052
2017-09-04T13:32:02.712Z,2876
2017-09-04T13:33:04.108Z,2724
2017-09-04T13:34:05.506Z,2596
2017-09-04T13:35:06.907Z,2440
2017-09-04T13:36:08.307Z,2268
2017-09-04T13:37:09.708Z,2140
2017-09-04T13:38:11.106Z,2008
2017-09-04T13:39:12.508Z,1876
2017-09-04T13:40:13.901Z,1756
2017-09-04T13:41:15.307Z,1672
2017-09-04T13:42:16.714Z,1592
2017-09-04T13:43:18.119Z,1528
2017-09-04T13:44:19.512Z,1468
2017-09-04T13:45:20.914Z,1396
2017-09-04T13:46:22.313Z,1340
2017-09-04T13:47:23.711Z,1284
2017-09-04T13:48:25.110Z,1252
2017-09-04T13:49:26.504Z,1200
2017-09-04T13:50:27.904Z,1152
2017-09-04T13:51:29.311Z,1124
2017-09-04T13:52:30.703Z,1100
2017-09-04T13:53:32.103Z,1080
2017-09-04T13:54:33.499Z,1056
2017-09-04T13:55:34.896Z,1060
2017-09-04T13:56:36.295Z,1076
2017-09-04T13:57:37.695Z,1088
2017-09-04T13:58:39.094Z,1132
2017-09-04T13:59:40.498Z,1196
2017-09-04T14:00:41.988Z,1252
2017-09-04T14:01:43.386Z,1312
2017-09-04T14:02:44.791Z,1360
2017-09-04T14:03:46.207Z,1420
2017-09-04T14:04:47.606Z,1524
2017-09-04T14:05:49.000Z,1648
2017-09-04T14:06:50.399Z,1760
2017-09-04T14:07:51.799Z,1784